Time;durP1;ratioP1;P1;durP2;ratioP2;P2;SDS_P1;SDS_P2;PMS_P1;PMS_P2;Temp;Humidity;BMP_temperature;BMP_pressure;BME280_temperature;BME280_humidity;BME280_pressure;Samples;Min_cycle;Max_cycle;Signal;HPM_P1;HPM_P2
2021/05/10 00:01:12;;;;;;;5.13;3.77;;;20.50;34.30;;;;;;5038254;28;20430;-86
2021/05/10 00:03:39;;;;;;;4.83;3.30;;;20.60;34.50;;;;;;5039181;28;20504;-86
2021/05/10 00:06:06;;;;;;;10.40;4.07;;;20.50;35.00;;;;;;5038944;28;20430;-86
2021/05/10 00:08:33;;;;;;;5.97;3.57;;;20.60;35.00;;;;;;5036849;28;20472;-86
2021/05/10 00:13:45;;;;;;;6.20;3.30;;;20.50;35.30;;;;;;5021216;28;20432;-86
2021/05/10 00:16:12;;;;;;;8.23;3.97;;;20.50;35.30;;;;;;5024900;28;20454;-86
2021/05/10 00:18:38;;;;;;;4.33;3.33;;;20.60;35.50;;;;;;5019143;28;20450;-86
2021/05/10 00:21:06;;;;;;;3.90;3.50;;;20.40;36.30;;;;;;5018711;28;20489;-86
2021/05/10 00:23:33;;;;;;;4.63;3.90;;;20.20;36.60;;;;;;5020009;28;20580;-86
2021/05/10 00:25:59;;;;;;;5.83;3.50;;;20.20;36.20;;;;;;5017620;28;20430;-87
2021/05/10 00:28:26;;;;;;;10.00;3.70;;;20.10;36.00;;;;;;5018189;28;20905;-87
2021/05/10 00:30:52;;;;;;;3.73;2.87;;;19.90;35.90;;;;;;5018111;28;20815;-86
2021/05/10 00:33:19;;;;;;;4.13;3.07;;;19.90;36.30;;;;;;5018451;28;20931;-87
2021/05/10 00:35:45;;;;;;;3.90;3.27;;;20.00;36.10;;;;;;5018511;28;20516;-86
2021/05/10 00:38:12;;;;;;;5.57;3.53;;;20.20;35.70;;;;;;5018283;28;20486;-87
2021/05/10 00:40:39;;;;;;;5.50;3.60;;;20.30;35.60;;;;;;5018217;28;20410;-86
2021/05/10 00:43:05;;;;;;;5.90;3.53;;;20.20;35.60;;;;;;5018665;28;20564;-87
2021/05/10 00:45:33;;;;;;;5.60;3.33;;;20.00;36.70;;;;;;5017173;28;20434;-87
2021/05/10 00:48:00;;;;;;;7.80;4.13;;;19.90;36.70;;;;;;5017214;28;20454;-87
2021/05/10 00:50:27;;;;;;;10.83;4.20;;;19.70;37.00;;;;;;5017094;28;20502;-87
2021/05/10 00:52:53;;;;;;;7.50;4.13;;;19.80;37.10;;;;;;5016907;28;20928;-86
2021/05/10 00:55:21;;;;;;;5.00;3.70;;;19.50;38.00;;;;;;5017143;28;20442;-86
2021/05/10 00:57:51;;;;;;;6.87;4.30;;;19.10;38.70;;;;;;5017012;28;20457;-86
2021/05/10 01:00:19;;;;;;;6.93;3.57;;;18.90;39.30;;;;;;5016924;28;20435;-86
2021/05/10 01:02:46;;;;;;;12.90;5.43;;;18.70;39.50;;;;;;5017719;28;20490;-86
2021/05/10 01:05:14;;;;;;;9.60;4.20;;;18.70;39.90;;;;;;5017534;28;20445;-86
2021/05/10 01:07:40;;;;;;;18.87;7.10;;;18.80;39.80;;;;;;5016978;28;20454;-86
2021/05/10 01:10:10;;;;;;;8.23;4.60;;;18.90;39.90;;;;;;5016497;28;20951;-86
2021/05/10 01:12:38;;;;;;;6.17;4.43;;;18.50;40.50;;;;;;5017020;28;20848;-86
2021/05/10 01:15:07;;;;;;;4.47;4.10;;;18.30;41.00;;;;;;5026615;28;20419;-86
2021/05/10 01:17:35;;;;;;;8.73;4.30;;;18.40;41.00;;;;;;5037153;28;20448;-86
2021/05/10 01:20:03;;;;;;;10.83;4.00;;;18.70;40.10;;;;;;5032940;28;20481;-86
2021/05/10 01:22:43;;;;;;;4.77;4.30;;;18.70;40.20;;;;;;5020094;28;21010;-86
2021/05/10 01:25:13;;;;;;;11.30;3.90;;;18.50;40.40;;;;;;5036130;28;20422;-86
2021/05/10 01:27:40;;;;;;;14.90;8.97;;;18.70;40.00;;;;;;5039545;28;20442;-85
2021/05/10 01:30:09;;;;;;;8.63;4.00;;;18.60;40.60;;;;;;5039773;28;20438;-85
2021/05/10 01:32:36;;;;;;;7.87;3.50;;;18.50;40.50;;;;;;5039622;28;20434;-85
2021/05/10 01:35:04;;;;;;;6.43;3.80;;;18.50;40.30;;;;;;5039757;28;20473;-85
2021/05/10 01:37:30;;;;;;;6.43;3.17;;;18.60;40.20;;;;;;5039566;28;20533;-85
2021/05/10 01:39:58;;;;;;;7.33;3.47;;;18.30;41.00;;;;;;5039057;28;20497;-85
2021/05/10 01:42:24;;;;;;;6.83;3.63;;;18.40;40.80;;;;;;5038949;28;20473;-86
2021/05/10 01:44:51;;;;;;;19.03;9.00;;;18.40;40.70;;;;;;5038570;28;20519;-86
2021/05/10 01:47:18;;;;;;;7.73;4.20;;;18.30;41.40;;;;;;5039013;28;20415;-86
2021/05/10 01:49:47;;;;;;;4.73;3.90;;;18.20;41.40;;;;;;5035001;28;20528;-87
2021/05/10 01:52:14;;;;;;;4.37;3.30;;;18.30;41.20;;;;;;5027272;28;20433;-87
2021/05/10 01:54:41;;;;;;;5.03;3.30;;;18.10;41.50;;;;;;5021230;28;20446;-87
2021/05/10 01:57:11;;;;;;;3.70;2.90;;;18.30;40.30;;;;;;5020078;28;20461;-86
2021/05/10 01:59:37;;;;;;;12.13;6.30;;;18.30;40.40;;;;;;5019344;28;20470;-87
2021/05/10 02:02:04;;;;;;;8.73;4.00;;;18.50;40.30;;;;;;5018065;28;20458;-88
2021/05/10 02:05:15;;;;;;;6.27;3.40;;;18.50;40.40;;;;;;5018705;28;20438;-87
2021/05/10 02:07:43;;;;;;;16.80;3.40;;;18.40;40.80;;;;;;4997802;28;20816;-87
2021/05/10 02:10:13;;;;;;;3.93;3.40;;;18.60;40.40;;;;;;5016995;28;20874;-88
2021/05/10 02:12:41;;;;;;;5.37;3.70;;;18.80;39.80;;;;;;5017461;28;20442;-86
2021/05/10 02:15:10;;;;;;;6.60;3.60;;;18.80;39.50;;;;;;5016691;28;20482;-87
2021/05/10 02:17:36;;;;;;;7.43;3.33;;;18.80;40.10;;;;;;5019340;28;20478;-89
2021/05/10 02:20:06;;;;;;;16.30;9.17;;;18.40;40.90;;;;;;5017867;28;20553;-87
2021/05/10 02:22:33;;;;;;;10.30;5.13;;;18.60;41.00;;;;;;5016808;28;20469;-86
2021/05/10 02:24:59;;;;;;;5.00;4.07;;;18.50;41.30;;;;;;5019511;28;20438;-87
2021/05/10 02:27:26;;;;;;;10.13;5.30;;;18.10;41.60;;;;;;5021044;28;20489;-88
2021/05/10 02:29:53;;;;;;;5.40;3.40;;;18.10;42.10;;;;;;5025513;28;20470;-87
2021/05/10 02:32:19;;;;;;;7.00;4.20;;;18.20;40.90;;;;;;5027328;28;20453;-87
2021/05/10 02:34:46;;;;;;;6.33;3.63;;;18.50;40.70;;;;;;5019993;28;20466;-87
2021/05/10 02:37:12;;;;;;;9.20;4.10;;;18.60;39.80;;;;;;5022029;28;20450;-87
2021/05/10 02:39:39;;;;;;;3.70;3.00;;;18.60;40.20;;;;;;5020834;28;20485;-87
2021/05/10 02:42:06;;;;;;;5.33;3.63;;;18.60;40.20;;;;;;5017541;28;20488;-88
2021/05/10 02:44:33;;;;;;;20.47;5.70;;;18.80;40.20;;;;;;5017616;28;20465;-87
2021/05/10 02:47:00;;;;;;;7.50;4.53;;;18.70;40.20;;;;;;5018467;28;20450;-88
2021/05/10 02:49:26;;;;;;;4.80;3.90;;;18.30;41.20;;;;;;5018022;28;20842;-88
2021/05/10 02:51:53;;;;;;;5.63;3.83;;;18.30;41.10;;;;;;5020965;28;20422;-88
2021/05/10 02:54:20;;;;;;;10.20;5.77;;;18.40;40.50;;;;;;5017973;28;20493;-87
2021/05/10 02:56:46;;;;;;;11.93;6.27;;;18.40;41.10;;;;;;5017316;28;20869;-88
2021/05/10 02:59:13;;;;;;;4.77;4.10;;;18.10;41.90;;;;;;5017599;28;20477;-89
2021/05/10 03:01:39;;;;;;;9.13;4.73;;;18.10;41.50;;;;;;5018687;28;20457;-88
2021/05/10 03:04:06;;;;;;;4.70;4.00;;;18.10;41.10;;;;;;5018194;28;20892;-87
2021/05/10 03:06:33;;;;;;;5.40;4.00;;;18.30;40.40;;;;;;5020432;28;20940;-87
2021/05/10 03:08:59;;;;;;;8.97;5.60;;;18.50;40.50;;;;;;5021979;28;20963;-87
2021/05/10 03:11:25;;;;;;;5.30;3.90;;;18.30;40.80;;;;;;5022972;28;20485;-88
2021/05/10 03:13:52;;;;;;;4.10;3.73;;;18.00;41.30;;;;;;5021842;28;20836;-88
2021/05/10 03:16:18;;;;;;;7.00;4.10;;;18.20;40.80;;;;;;5025123;23;20937;-87
2021/05/10 03:18:45;;;;;;;12.17;6.23;;;18.30;40.50;;;;;;4995562;28;20470;-87
2021/05/10 03:21:12;;;;;;;6.83;3.67;;;18.40;40.60;;;;;;4994785;28;20439;-88
2021/05/10 03:23:38;;;;;;;6.63;3.30;;;18.30;40.80;;;;;;4994673;28;20518;-89
2021/05/10 03:26:05;;;;;;;4.87;3.77;;;18.60;40.00;;;;;;4994440;28;21054;-88
2021/05/10 03:28:31;;;;;;;5.73;4.40;;;18.70;39.90;;;;;;4994591;28;20525;-88
2021/05/10 03:30:58;;;;;;;9.53;4.70;;;18.70;40.00;;;;;;4994273;28;20531;-88
2021/05/10 03:33:24;;;;;;;6.10;4.83;;;18.90;39.70;;;;;;4994195;28;20475;-88
2021/05/10 03:35:50;;;;;;;4.90;3.23;;;18.40;41.00;;;;;;4994499;28;20531;-88
2021/05/10 03:38:18;;;;;;;6.77;3.43;;;18.40;40.50;;;;;;4994313;28;20436;-87
2021/05/10 03:40:44;;;;;;;12.10;3.80;;;18.30;41.00;;;;;;4995201;28;20812;-87
2021/05/10 03:43:10;;;;;;;7.33;3.80;;;18.60;40.30;;;;;;4993843;28;20481;-86
2021/05/10 03:45:37;;;;;;;11.23;3.53;;;18.70;39.70;;;;;;4994225;28;20459;-86
2021/05/10 03:48:04;;;;;;;5.13;3.53;;;18.70;40.00;;;;;;4994182;28;20517;-86
2021/05/10 03:50:30;;;;;;;3.87;3.13;;;18.80;39.60;;;;;;4994244;28;20435;-86
2021/05/10 03:52:57;;;;;;;6.23;3.03;;;18.80;39.60;;;;;;4994871;28;20486;-87
2021/05/10 03:55:25;;;;;;;6.13;3.33;;;19.00;39.10;;;;;;4993974;28;20498;-89
2021/05/10 03:57:52;;;;;;;7.53;3.87;;;18.90;39.60;;;;;;4994030;28;20537;-89
2021/05/10 04:00:20;;;;;;;3.77;3.23;;;19.10;39.00;;;;;;4994313;28;20450;-89
2021/05/10 04:02:46;;;;;;;5.20;3.40;;;18.90;39.10;;;;;;4997495;28;20493;-89
2021/05/10 04:05:25;;;;;;;6.50;4.17;;;18.80;39.30;;;;;;4997805;28;20471;-89
2021/05/10 04:07:55;;;;;;;4.63;3.43;;;18.70;39.70;;;;;;4997928;28;20439;-89
2021/05/10 04:16:05;;;;;;;4.90;3.27;;;18.70;40.60;;;;;;4975803;28;20562;-89
2021/05/10 04:18:32;;;;;;;4.37;3.40;;;19.00;39.90;;;;;;4976211;28;20871;-89
2021/05/10 04:20:59;;;;;;;15.73;4.80;;;19.00;39.70;;;;;;4976222;28;21036;-89
2021/05/10 04:23:26;;;;;;;7.53;3.60;;;19.30;39.80;;;;;;4975741;28;20946;-89
2021/05/10 04:25:54;;;;;;;12.23;3.60;;;19.40;39.30;;;;;;4975584;28;20499;-89
2021/05/10 04:28:22;;;;;;;4.40;3.60;;;19.20;39.80;;;;;;4975853;28;20432;-89
2021/05/10 04:30:50;;;;;;;5.20;3.50;;;19.00;39.90;;;;;;4976151;28;20957;-90
2021/05/10 04:33:17;;;;;;;13.90;4.30;;;19.10;40.00;;;;;;4975797;28;20452;-90
2021/05/10 04:35:43;;;;;;;19.70;5.70;;;19.00;40.10;;;;;;4974644;28;20491;-91
2021/05/10 04:38:11;;;;;;;4.30;3.40;;;18.90;40.80;;;;;;4977163;28;20458;-92
2021/05/10 04:40:39;;;;;;;14.43;3.30;;;18.90;40.50;;;;;;4978186;28;20538;-92
2021/05/10 04:43:06;;;;;;;7.43;3.97;;;19.10;40.30;;;;;;4978135;28;20860;-92
2021/05/10 04:45:34;;;;;;;5.80;3.40;;;19.30;40.70;;;;;;4977697;28;20472;-92
2021/05/10 04:48:00;;;;;;;4.00;3.67;;;19.40;39.90;;;;;;4997412;28;20454;-92
2021/05/10 04:50:27;;;;;;;5.20;3.50;;;19.60;39.20;;;;;;4998942;28;20490;-93
2021/05/10 04:52:53;;;;;;;5.40;3.53;;;19.50;40.00;;;;;;5000024;28;20898;-93
2021/05/10 04:55:20;;;;;;;6.07;3.33;;;19.70;39.40;;;;;;4998681;28;20475;-93
2021/05/10 04:57:46;;;;;;;16.93;3.93;;;20.00;39.10;;;;;;4998419;28;20527;-93
2021/05/10 05:00:15;;;;;;;3.67;3.50;;;20.10;38.90;;;;;;4998762;28;20546;-93
2021/05/10 05:02:42;;;;;;;6.83;3.30;;;20.10;39.30;;;;;;4997874;28;20474;-93
2021/05/10 05:05:11;;;;;;;7.40;3.70;;;20.30;38.70;;;;;;4997596;28;20450;-93
2021/05/10 05:07:39;;;;;;;6.73;4.20;;;20.40;38.70;;;;;;5005356;28;20510;-92
2021/05/10 05:10:06;;;;;;;3.43;3.20;;;20.10;39.50;;;;;;5008740;28;20447;-93
2021/05/10 05:12:33;;;;;;;7.83;3.67;;;20.20;38.90;;;;;;5009273;28;20468;-92
2021/05/10 05:14:59;;;;;;;6.00;3.60;;;20.10;39.40;;;;;;5004372;28;20474;-93
2021/05/10 05:17:26;;;;;;;6.53;3.60;;;20.30;39.30;;;;;;4998918;28;20471;-93
2021/05/10 05:19:53;;;;;;;7.83;3.60;;;20.20;39.20;;;;;;5003959;28;20435;-93
2021/05/10 05:22:19;;;;;;;9.73;3.63;;;20.30;38.90;;;;;;5001476;28;20750;-94
2021/05/10 05:24:46;;;;;;;6.30;4.07;;;20.40;38.80;;;;;;4997388;28;21026;-91
2021/05/10 05:27:12;;;;;;;5.63;3.77;;;20.50;38.60;;;;;;4996887;28;20442;-91
2021/05/10 05:29:39;;;;;;;8.50;4.10;;;20.50;38.70;;;;;;4997073;28;20526;-90
2021/05/10 05:32:06;;;;;;;7.20;3.50;;;20.50;39.00;;;;;;4997301;28;20479;-90
2021/05/10 05:34:32;;;;;;;4.97;3.33;;;20.40;39.50;;;;;;4997293;28;20482;-91
2021/05/10 05:36:59;;;;;;;6.33;4.00;;;20.40;38.80;;;;;;5001321;28;20458;-92
2021/05/10 05:39:27;;;;;;;9.83;3.50;;;20.40;39.10;;;;;;4999326;28;20520;-93
2021/05/10 05:41:53;;;;;;;5.47;4.10;;;20.70;38.00;;;;;;4997477;28;20458;-92
2021/05/10 05:44:20;;;;;;;10.47;5.60;;;20.90;38.10;;;;;;4996949;28;20891;-92
2021/05/10 05:46:49;;;;;;;11.50;5.70;;;20.70;39.50;;;;;;4997374;28;20562;-93
2021/05/10 05:49:16;;;;;;;8.40;3.50;;;20.60;38.80;;;;;;4997915;28;20557;-92
2021/05/10 05:51:46;;;;;;;11.53;4.23;;;20.60;39.50;;;;;;4996897;28;20435;-93
2021/05/10 05:54:13;;;;;;;5.90;3.60;;;20.10;41.00;;;;;;4997273;28;20538;-93
2021/05/10 05:56:40;;;;;;;3.77;3.47;;;20.30;40.90;;;;;;4998615;28;20489;-92
2021/05/10 05:59:06;;;;;;;11.23;3.60;;;20.40;41.10;;;;;;4996723;28;20467;-92
2021/05/10 06:01:33;;;;;;;5.83;3.90;;;20.60;40.90;;;;;;4996429;28;20438;-92
2021/05/10 06:03:59;;;;;;;10.83;4.93;;;20.70;41.30;;;;;;5006130;28;20498;-92
2021/05/10 06:06:26;;;;;;;12.77;3.63;;;20.90;40.70;;;;;;5006957;28;20467;-92
2021/05/10 06:08:53;;;;;;;3.97;3.20;;;21.10;40.70;;;;;;4996869;28;20455;-90
2021/05/10 06:11:20;;;;;;;6.07;3.90;;;21.20;39.70;;;;;;4996867;28;20462;-90
2021/05/10 06:13:47;;;;;;;8.33;3.63;;;21.50;41.20;;;;;;5009312;28;20422;-89
2021/05/10 06:16:13;;;;;;;10.33;3.63;;;22.60;39.60;;;;;;5005350;28;20642;-90
2021/05/10 06:18:43;;;;;;;7.93;3.17;;;23.50;36.90;;;;;;4996992;28;20486;-90
2021/05/10 06:21:09;;;;;;;8.90;4.00;;;23.90;36.10;;;;;;4996535;28;20447;-91
2021/05/10 06:23:39;;;;;;;5.10;3.43;;;24.30;36.20;;;;;;4995249;28;20941;-91
2021/05/10 06:26:06;;;;;;;8.90;4.00;;;25.10;34.40;;;;;;4995773;28;20474;-91
2021/05/10 06:28:34;;;;;;;14.13;4.17;;;25.70;34.80;;;;;;4996534;28;20490;-91
2021/05/10 06:31:00;;;;;;;17.80;3.93;;;26.90;32.60;;;;;;4998910;28;20438;-91
2021/05/10 06:33:27;;;;;;;5.40;3.57;;;27.30;29.90;;;;;;5002901;28;20466;-92
2021/05/10 06:35:53;;;;;;;19.03;4.80;;;26.90;30.00;;;;;;5002051;28;20513;-91
2021/05/10 06:38:20;;;;;;;6.40;3.67;;;26.70;30.50;;;;;;5001431;28;20466;-92
2021/05/10 06:40:46;;;;;;;5.87;3.40;;;25.90;31.80;;;;;;5001406;28;20506;-92
2021/05/10 06:43:13;;;;;;;7.90;3.43;;;25.10;33.40;;;;;;5000751;28;20499;-92
2021/05/10 06:45:40;;;;;;;9.60;3.43;;;24.90;33.50;;;;;;5000354;28;20570;-92
2021/05/10 06:48:07;;;;;;;5.70;3.30;;;24.70;33.40;;;;;;5012314;28;20498;-88
2021/05/10 06:50:33;;;;;;;8.60;2.77;;;24.70;34.00;;;;;;5017811;28;20439;-91
2021/05/10 06:52:59;;;;;;;5.23;3.17;;;24.50;33.90;;;;;;5005475;28;20440;-91
2021/05/10 06:55:26;;;;;;;8.30;2.97;;;24.50;33.10;;;;;;5016711;28;20496;-88
2021/05/10 06:57:52;;;;;;;9.83;3.87;;;24.50;34.30;;;;;;5018679;28;20451;-90
2021/05/10 07:00:19;;;;;;;6.03;3.40;;;24.10;35.00;;;;;;5016537;28;20453;-91
2021/05/10 07:02:46;;;;;;;12.20;3.17;;;24.10;35.00;;;;;;4999617;28;20851;-91
2021/05/10 07:05:13;;;;;;;6.13;2.50;;;23.60;36.00;;;;;;4995953;28;20474;-91
2021/05/10 07:07:40;;;;;;;7.57;3.00;;;23.50;36.00;;;;;;4995389;28;20481;-92
2021/05/10 07:10:07;;;;;;;3.97;3.10;;;22.90;36.60;;;;;;4996057;28;20474;-91
2021/05/10 07:12:34;;;;;;;5.17;3.07;;;22.60;37.20;;;;;;4995590;28;20457;-91
2021/05/10 07:15:00;;;;;;;4.27;2.97;;;22.40;37.40;;;;;;4996195;28;20489;-91
2021/05/10 07:17:27;;;;;;;7.80;3.40;;;22.20;38.10;;;;;;4994618;28;20475;-91
2021/05/10 07:19:54;;;;;;;15.83;3.43;;;22.50;37.30;;;;;;4995075;28;20545;-91
2021/05/10 07:22:20;;;;;;;12.00;3.43;;;23.20;37.80;;;;;;4994592;28;20541;-92
2021/05/10 07:24:47;;;;;;;6.80;3.20;;;24.30;37.70;;;;;;4996087;28;20474;-91
2021/05/10 07:27:13;;;;;;;6.57;3.00;;;25.00;34.30;;;;;;4995129;28;20558;-91
2021/05/10 07:29:39;;;;;;;20.50;3.83;;;25.40;31.50;;;;;;4995334;28;20447;-91
2021/05/10 07:32:07;;;;;;;8.33;2.90;;;25.20;31.80;;;;;;5003772;28;20439;-91
2021/05/10 07:34:33;;;;;;;5.70;3.00;;;25.20;31.80;;;;;;5012475;28;20435;-89
2021/05/10 07:37:00;;;;;;;9.60;3.23;;;24.80;32.60;;;;;;5003394;28;20532;-91
2021/05/10 07:39:27;;;;;;;4.60;3.07;;;24.70;33.10;;;;;;4999911;28;20465;-91
2021/05/10 07:41:53;;;;;;;4.80;2.90;;;24.50;33.90;;;;;;4998895;28;20438;-92
2021/05/10 07:44:19;;;;;;;11.80;2.80;;;24.50;33.30;;;;;;5000149;28;20485;-91
2021/05/10 07:46:46;;;;;;;4.80;3.23;;;24.60;33.00;;;;;;5002314;28;20857;-91
2021/05/10 07:49:12;;;;;;;4.90;2.90;;;24.80;32.60;;;;;;5001826;28;20435;-92
2021/05/10 07:51:39;;;;;;;4.50;2.80;;;24.80;32.80;;;;;;5001856;28;20478;-92
2021/05/10 07:54:07;;;;;;;10.93;3.00;;;25.00;32.90;;;;;;5002453;28;20584;-92
2021/05/10 07:56:33;;;;;;;3.70;2.93;;;24.90;32.80;;;;;;5001866;28;20458;-92
2021/05/10 07:59:01;;;;;;;6.83;3.27;;;24.90;32.50;;;;;;5002021;28;20435;-91
2021/05/10 08:01:27;;;;;;;10.67;2.87;;;24.80;33.20;;;;;;5001492;28;20867;-92
2021/05/10 08:03:54;;;;;;;9.33;2.90;;;24.70;33.10;;;;;;4998507;28;20498;-92
2021/05/10 08:06:20;;;;;;;7.07;3.03;;;24.70;33.20;;;;;;4998541;28;20553;-92
2021/05/10 08:08:47;;;;;;;5.00;3.40;;;24.80;33.20;;;;;;4998497;28;21023;-91
2021/05/10 08:11:15;;;;;;;4.83;2.80;;;24.90;32.20;;;;;;4998975;28;20462;-91
2021/05/10 08:13:41;;;;;;;6.27;2.77;;;25.10;31.70;;;;;;4998757;28;20813;-92
2021/05/10 08:16:08;;;;;;;6.03;3.10;;;25.20;31.50;;;;;;5001361;28;20482;-92
2021/05/10 08:18:40;;;;;;;6.60;2.93;;;25.40;30.80;;;;;;5015259;28;20451;-91
2021/05/10 08:21:07;;;;;;;4.90;3.17;;;25.70;30.60;;;;;;5008209;28;20447;-91
2021/05/10 08:23:33;;;;;;;10.93;2.83;;;25.90;30.20;;;;;;4998312;28;20474;-91
2021/05/10 08:26:00;;;;;;;4.50;2.90;;;25.70;30.60;;;;;;4998616;28;20510;-91
2021/05/10 08:28:28;;;;;;;6.97;3.10;;;26.00;30.10;;;;;;4999081;28;20459;-90
2021/05/10 08:30:54;;;;;;;9.60;3.10;;;26.50;29.60;;;;;;4997380;28;20466;-91
2021/05/10 08:33:21;;;;;;;11.97;2.67;;;27.10;28.70;;;;;;4997899;28;20442;-91
2021/05/10 08:35:47;;;;;;;4.17;3.03;;;28.00;27.50;;;;;;4997562;28;20549;-91
2021/05/10 08:38:14;;;;;;;4.83;3.10;;;27.60;27.70;;;;;;4997484;28;21078;-92
2021/05/10 08:40:40;;;;;;;4.73;2.80;;;27.90;26.40;;;;;;4997764;28;20474;-92
2021/05/10 08:43:18;;;;;;;9.43;2.97;;;29.00;27.00;;;;;;4996924;28;20573;-92
2021/05/10 08:45:48;;;;;;;6.23;2.90;;;29.60;25.00;;;;;;4997529;28;20463;-92
2021/05/10 08:48:14;;;;;;;5.70;2.40;;;30.10;24.20;;;;;;4996494;28;20458;-92
2021/05/10 08:50:40;;;;;;;5.37;2.37;;;29.80;24.20;;;;;;4997571;28;20446;-92
2021/05/10 08:53:07;;;;;;;5.30;2.33;;;29.80;23.80;;;;;;4997984;28;20439;-92
2021/05/10 08:55:33;;;;;;;4.93;2.77;;;29.70;24.00;;;;;;4998724;28;20471;-91
2021/05/10 08:58:00;;;;;;;5.20;2.73;;;29.70;24.40;;;;;;4997326;28;20451;-91
2021/05/10 09:00:26;;;;;;;9.70;2.93;;;29.70;24.10;;;;;;4997577;28;20502;-91
2021/05/10 09:03:08;;;;;;;10.27;2.70;;;28.90;25.60;;;;;;5012718;28;20474;-91
2021/05/10 09:05:46;;;;;;;7.37;3.10;;;28.20;26.50;;;;;;5010043;28;20494;-91
2021/05/10 09:08:12;;;;;;;6.33;2.50;;;28.80;26.60;;;;;;4997978;28;20497;-91
2021/05/10 09:10:38;;;;;;;9.80;2.70;;;28.40;26.70;;;;;;4997849;28;20458;-91
2021/05/10 09:13:05;;;;;;;6.27;2.67;;;28.90;25.70;;;;;;4997701;28;20808;-90
2021/05/10 11:01:49;;;;;;;7.90;4.37;;;24.30;35.40;;;;;;5030282;28;20417;-85
2021/05/10 11:04:24;;;;;;;6.33;3.10;;;24.20;35.10;;;;;;5026094;28;20509;-86
2021/05/10 11:06:51;;;;;;;8.63;3.50;;;24.30;35.40;;;;;;5029424;28;20473;-86
2021/05/10 11:09:51;;;;;;;5.93;3.03;;;24.80;35.40;;;;;;5029266;28;20438;-86
2021/05/10 11:12:48;;;;;;;12.30;3.57;;;24.80;34.10;;;;;;5030710;28;20504;-86
2021/05/10 11:15:33;;;;;;;4.87;3.03;;;23.90;36.60;;;;;;5028594;28;20469;-86
2021/05/10 11:18:02;;;;;;;10.70;3.07;;;24.00;35.90;;;;;;5028729;28;20526;-86
2021/05/10 11:20:38;;;;;;;17.77;3.30;;;23.80;36.90;;;;;;5029982;28;20453;-87
2021/05/10 11:23:33;;;;;;;5.00;3.03;;;23.60;37.50;;;;;;5031284;28;20508;-86
2021/05/10 11:26:01;;;;;;;6.50;2.40;;;23.20;37.30;;;;;;5027153;28;20462;-86
2021/05/10 11:28:44;;;;;;;4.80;2.63;;;23.60;36.60;;;;;;5023895;28;20442;-85
2021/05/10 11:31:16;;;;;;;5.20;2.63;;;23.90;36.90;;;;;;5027459;28;20494;-85
2021/05/10 11:34:08;;;;;;;4.23;2.30;;;23.90;35.20;;;;;;5034412;28;20857;-86
2021/05/10 11:36:36;;;;;;;6.50;2.30;;;23.40;35.50;;;;;;5034270;28;20454;-85
2021/05/10 11:39:06;;;;;;;6.20;2.77;;;23.20;35.40;;;;;;5032940;28;20453;-87
2021/05/10 11:41:34;;;;;;;6.87;2.37;;;23.00;36.20;;;;;;5032411;28;20430;-85
2021/05/10 11:44:02;;;;;;;4.97;2.40;;;23.20;36.00;;;;;;5028050;28;21001;-85
2021/05/10 11:46:35;;;;;;;4.60;2.23;;;23.60;36.30;;;;;;5027966;28;20454;-86
2021/05/10 11:49:03;;;;;;;6.77;1.93;;;23.20;35.80;;;;;;5025879;28;21009;-85
2021/05/10 11:51:30;;;;;;;3.57;2.07;;;23.10;36.60;;;;;;5034280;28;20442;-85
2021/05/10 11:53:58;;;;;;;8.23;2.30;;;23.00;37.00;;;;;;5033967;28;20430;-85
2021/05/10 11:56:26;;;;;;;11.90;2.10;;;23.30;36.50;;;;;;5035042;28;20473;-85
2021/05/10 11:58:57;;;;;;;3.37;2.13;;;22.70;36.80;;;;;;5033874;28;20450;-86
2021/05/10 12:01:35;;;;;;;3.87;1.80;;;22.60;37.50;;;;;;5030547;28;20460;-85
2021/05/10 12:04:16;;;;;;;5.30;2.00;;;22.50;38.00;;;;;;5028859;28;20485;-85
2021/05/10 12:06:44;;;;;;;4.70;2.10;;;22.50;37.50;;;;;;5029983;28;20540;-85
2021/05/10 12:09:35;;;;;;;4.43;2.27;;;22.30;38.30;;;;;;5028588;28;20935;-85
2021/05/10 12:12:03;;;;;;;2.93;2.30;;;22.70;37.40;;;;;;5029838;28;20515;-85
2021/05/10 12:14:29;;;;;;;6.03;2.50;;;22.60;37.70;;;;;;5029629;28;20508;-85
2021/05/10 12:17:06;;;;;;;7.13;2.40;;;22.80;38.00;;;;;;5029802;28;20548;-86
2021/05/10 12:19:57;;;;;;;3.97;2.13;;;22.80;37.50;;;;;;5028403;28;20469;-85
2021/05/10 12:22:26;;;;;;;2.90;2.30;;;22.70;37.40;;;;;;5028749;28;20423;-85
2021/05/10 12:25:07;;;;;;;3.30;2.20;;;23.20;37.40;;;;;;5031760;28;20469;-85
2021/05/10 12:27:41;;;;;;;10.37;2.50;;;23.20;37.50;;;;;;5030845;28;20429;-85
2021/05/10 12:30:14;;;;;;;3.50;2.13;;;23.30;36.80;;;;;;5030319;28;20426;-85
2021/05/10 12:32:41;;;;;;;3.50;2.23;;;23.40;36.80;;;;;;5026399;28;20441;-85
2021/05/10 12:35:11;;;;;;;6.33;2.10;;;23.80;36.00;;;;;;5028495;28;20474;-85
2021/05/10 12:37:42;;;;;;;3.77;2.13;;;24.10;34.90;;;;;;5039609;28;20454;-84
2021/05/10 12:40:11;;;;;;;5.70;2.53;;;24.00;34.30;;;;;;5040177;28;20442;-84
2021/05/10 12:42:38;;;;;;;5.00;2.40;;;23.60;35.30;;;;;;5040397;28;20445;-84
2021/05/10 12:45:07;;;;;;;2.60;2.17;;;23.60;34.90;;;;;;5039884;28;20500;-84
2021/05/10 12:47:38;;;;;;;3.30;2.10;;;23.40;34.50;;;;;;5040658;28;20437;-83
2021/05/10 12:50:05;;;;;;;5.20;2.10;;;23.50;34.70;;;;;;5040463;28;20441;-84
2021/05/10 12:52:51;;;;;;;16.03;2.77;;;23.90;34.40;;;;;;5030793;28;20453;-85
2021/05/10 12:55:19;;;;;;;2.90;2.47;;;24.30;33.70;;;;;;5031651;28;20474;-85
2021/05/10 12:57:46;;;;;;;9.63;2.13;;;24.60;34.00;;;;;;5035995;28;20457;-86
2021/05/10 13:00:37;;;;;;;3.87;2.37;;;24.90;33.50;;;;;;5030511;28;20457;-85
2021/05/10 13:03:06;;;;;;;5.90;2.10;;;24.90;33.30;;;;;;5028977;28;20454;-86
2021/05/10 13:05:37;;;;;;;7.63;1.90;;;24.70;33.00;;;;;;5029475;28;20548;-85
2021/05/10 13:08:07;;;;;;;2.80;2.07;;;24.40;33.70;;;;;;5026408;28;20453;-85
2021/05/10 13:10:34;;;;;;;8.17;2.97;;;24.60;33.10;;;;;;5028400;28;20450;-85
2021/05/10 13:13:01;;;;;;;2.10;1.80;;;24.40;33.80;;;;;;5037758;28;20431;-84
2021/05/10 13:15:37;;;;;;;2.80;1.90;;;24.60;32.70;;;;;;5038706;28;20506;-84
2021/05/10 13:18:24;;;;;;;2.87;2.33;;;24.90;32.90;;;;;;5038732;28;20438;-86
2021/05/10 13:32:08;;;;;;;3.03;2.27;;;25.00;32.80;;;;;;5030313;28;20437;-86
2021/05/10 13:34:52;;;;;;;10.93;2.40;;;24.50;33.00;;;;;;5032587;28;20446;-86
2021/05/10 13:37:19;;;;;;;3.20;1.90;;;24.50;32.30;;;;;;5029682;28;20434;-86
2021/05/10 13:39:46;;;;;;;4.80;2.17;;;24.10;33.30;;;;;;5030488;28;20446;-86
2021/05/10 13:42:18;;;;;;;3.40;2.20;;;23.90;33.80;;;;;;5032800;28;20508;-85
2021/05/10 13:44:45;;;;;;;2.50;2.10;;;24.20;33.60;;;;;;5037594;28;20875;-85
2021/05/10 13:47:11;;;;;;;5.50;1.77;;;24.40;33.10;;;;;;5038065;28;20489;-85
2021/05/10 13:49:39;;;;;;;7.70;2.10;;;24.10;33.50;;;;;;5038077;28;20453;-84
2021/05/10 13:52:06;;;;;;;9.63;2.20;;;23.30;34.90;;;;;;5038453;28;20450;-85
2021/05/10 13:54:32;;;;;;;2.33;1.90;;;23.10;35.20;;;;;;5038091;28;20442;-83
2021/05/10 13:56:59;;;;;;;4.90;2.00;;;22.60;35.80;;;;;;5035053;28;20521;-85
2021/05/10 13:59:28;;;;;;;5.83;1.87;;;22.50;36.90;;;;;;5032492;28;20522;-86
2021/05/10 14:01:55;;;;;;;4.23;2.03;;;22.40;36.70;;;;;;5033771;28;20962;-84
2021/05/10 14:04:21;;;;;;;3.70;1.90;;;22.30;37.30;;;;;;5033541;28;20486;-85
2021/05/10 14:06:48;;;;;;;2.20;2.10;;;22.20;37.70;;;;;;5032418;28;20473;-84
2021/05/10 14:09:15;;;;;;;4.50;2.23;;;22.20;37.00;;;;;;5036867;28;20529;-84
2021/05/10 14:11:42;;;;;;;13.00;2.17;;;22.20;36.80;;;;;;5038613;28;20427;-84
2021/05/10 14:14:09;;;;;;;4.90;1.80;;;21.80;37.50;;;;;;5038618;28;20454;-84
2021/05/10 14:16:36;;;;;;;16.67;2.40;;;21.60;37.60;;;;;;5036414;28;20478;-86
2021/05/10 14:19:08;;;;;;;9.63;1.60;;;21.20;36.90;;;;;;5037030;28;20510;-83
2021/05/10 14:24:20;;;;;;;4.17;1.80;;;21.10;38.20;;;;;;5038912;28;20457;-82
2021/05/10 14:26:48;;;;;;;1.60;1.60;;;21.10;36.90;;;;;;5038580;28;20457;-84
2021/05/10 14:29:15;;;;;;;2.63;1.87;;;20.90;36.80;;;;;;5032278;28;20434;-85
2021/05/10 14:31:44;;;;;;;1.93;1.63;;;21.20;37.30;;;;;;5030066;28;20453;-88
2021/05/10 14:34:11;;;;;;;3.00;1.70;;;21.40;35.80;;;;;;5020131;28;20481;-88
2021/05/10 14:36:38;;;;;;;1.73;1.60;;;21.50;35.20;;;;;;5020815;28;20480;-88
2021/05/10 14:39:06;;;;;;;2.63;1.40;;;21.30;36.10;;;;;;5022833;28;20500;-87
2021/05/10 14:41:34;;;;;;;1.90;1.40;;;21.70;34.90;;;;;;5020656;28;20449;-88
2021/05/10 14:44:00;;;;;;;1.50;1.50;;;21.70;34.50;;;;;;5021837;28;20478;-87
2021/05/10 14:46:28;;;;;;;3.73;1.47;;;21.70;34.40;;;;;;5021931;28;20490;-88
2021/05/10 14:48:54;;;;;;;3.03;1.70;;;21.50;34.80;;;;;;5023357;28;20517;-87
2021/05/10 14:51:21;;;;;;;1.83;1.40;;;21.30;34.60;;;;;;5021246;28;20784;-87
2021/05/10 14:53:48;;;;;;;3.20;1.50;;;21.30;34.80;;;;;;5022643;28;20509;-86
2021/05/10 14:56:14;;;;;;;1.77;1.43;;;21.30;34.50;;;;;;5024198;28;20473;-86
2021/05/10 14:58:40;;;;;;;2.60;1.70;;;21.20;35.30;;;;;;5024974;28;20462;-86
2021/05/10 15:01:07;;;;;;;3.57;1.37;;;21.60;34.40;;;;;;5025452;28;20493;-87